sensor_id;sensor_type;location;lat;lon;timestamp;P1;durP1;ratioP1;P2;durP2;ratioP2
75506;SDS011;64086;43.220;27.878;2023-04-22T00:00:04;20.00;;;13.45;;
75506;SDS011;64086;43.220;27.878;2023-04-22T00:02:33;17.50;;;12.20;;
75506;SDS011;64086;43.220;27.878;2023-04-22T00:05:01;17.92;;;11.65;;
75506;SDS011;64086;43.220;27.878;2023-04-22T00:07:27;20.02;;;12.65;;
75506;SDS011;64086;43.220;27.878;2023-04-22T00:09:52;18.17;;;10.88;;
75506;SDS011;64086;43.220;27.878;2023-04-22T00:12:18;18.35;;;11.05;;
75506;SDS011;64086;43.220;27.878;2023-04-22T00:14:43;15.20;;;10.68;;
75506;SDS011;64086;43.220;27.878;2023-04-22T00:17:09;16.65;;;11.35;;
75506;SDS011;64086;43.220;27.878;2023-04-22T00:19:35;15.27;;;11.13;;
75506;SDS011;64086;43.220;27.878;2023-04-22T00:22:01;18.38;;;11.27;;
75506;SDS011;64086;43.220;27.878;2023-04-22T00:24:27;18.95;;;11.57;;
75506;SDS011;64086;43.220;27.878;2023-04-22T00:26:53;20.30;;;11.32;;
75506;SDS011;64086;43.220;27.878;2023-04-22T00:29:19;18.00;;;11.65;;
75506;SDS011;64086;43.220;27.878;2023-04-22T00:31:44;16.40;;;11.77;;
75506;SDS011;64086;43.220;27.878;2023-04-22T00:34:10;15.93;;;11.85;;
75506;SDS011;64086;43.220;27.878;2023-04-22T00:36:35;19.35;;;13.15;;
75506;SDS011;64086;43.220;27.878;2023-04-22T00:39:00;17.90;;;13.30;;
75506;SDS011;64086;43.220;27.878;2023-04-22T00:41:26;19.40;;;13.48;;
75506;SDS011;64086;43.220;27.878;2023-04-22T00:43:52;21.42;;;13.85;;
75506;SDS011;64086;43.220;27.878;2023-04-22T00:46:17;22.58;;;13.95;;
75506;SDS011;64086;43.220;27.878;2023-04-22T00:48:44;19.25;;;13.95;;
75506;SDS011;64086;43.220;27.878;2023-04-22T00:51:10;21.60;;;15.75;;
75506;SDS011;64086;43.220;27.878;2023-04-22T00:53:35;19.48;;;14.45;;
75506;SDS011;64086;43.220;27.878;2023-04-22T00:56:01;23.90;;;15.65;;
75506;SDS011;64086;43.220;27.878;2023-04-22T00:58:27;23.55;;;15.85;;
75506;SDS011;64086;43.220;27.878;2023-04-22T01:00:53;25.92;;;16.73;;
75506;SDS011;64086;43.220;27.878;2023-04-22T01:03:19;25.30;;;19.95;;
75506;SDS011;64086;43.220;27.878;2023-04-22T01:05:49;29.65;;;20.65;;
75506;SDS011;64086;43.220;27.878;2023-04-22T01:08:14;31.48;;;21.73;;
75506;SDS011;64086;43.220;27.878;2023-04-22T01:10:40;31.00;;;22.88;;
75506;SDS011;64086;43.220;27.878;2023-04-22T01:13:06;26.95;;;19.73;;
75506;SDS011;64086;43.220;27.878;2023-04-22T01:15:32;29.58;;;19.92;;
75506;SDS011;64086;43.220;27.878;2023-04-22T01:17:57;27.23;;;20.70;;
75506;SDS011;64086;43.220;27.878;2023-04-22T01:20:25;28.25;;;20.42;;
75506;SDS011;64086;43.220;27.878;2023-04-22T01:22:53;27.88;;;20.10;;
75506;SDS011;64086;43.220;27.878;2023-04-22T01:25:20;25.85;;;19.45;;
75506;SDS011;64086;43.220;27.878;2023-04-22T01:27:46;26.40;;;19.38;;
75506;SDS011;64086;43.220;27.878;2023-04-22T01:30:11;25.67;;;19.13;;
75506;SDS011;64086;43.220;27.878;2023-04-22T01:32:37;28.40;;;18.48;;
75506;SDS011;64086;43.220;27.878;2023-04-22T01:35:04;31.40;;;18.50;;
75506;SDS011;64086;43.220;27.878;2023-04-22T01:37:30;27.95;;;18.52;;
75506;SDS011;64086;43.220;27.878;2023-04-22T01:39:56;28.08;;;18.60;;
75506;SDS011;64086;43.220;27.878;2023-04-22T01:42:22;24.73;;;18.55;;
75506;SDS011;64086;43.220;27.878;2023-04-22T01:44:48;23.08;;;17.67;;
75506;SDS011;64086;43.220;27.878;2023-04-22T01:47:14;29.65;;;21.05;;
75506;SDS011;64086;43.220;27.878;2023-04-22T01:49:39;29.75;;;19.13;;
75506;SDS011;64086;43.220;27.878;2023-04-22T01:52:05;28.13;;;20.70;;
75506;SDS011;64086;43.220;27.878;2023-04-22T01:54:30;33.33;;;22.25;;
75506;SDS011;64086;43.220;27.878;2023-04-22T01:56:56;32.17;;;21.90;;
75506;SDS011;64086;43.220;27.878;2023-04-22T01:59:22;30.40;;;20.25;;
75506;SDS011;64086;43.220;27.878;2023-04-22T02:01:48;25.90;;;19.58;;
75506;SDS011;64086;43.220;27.878;2023-04-22T02:04:13;27.25;;;18.35;;
75506;SDS011;64086;43.220;27.878;2023-04-22T02:06:39;27.65;;;19.13;;
75506;SDS011;64086;43.220;27.878;2023-04-22T02:09:04;28.65;;;18.90;;
75506;SDS011;64086;43.220;27.878;2023-04-22T02:11:30;29.95;;;20.77;;
75506;SDS011;64086;43.220;27.878;2023-04-22T02:13:55;29.55;;;20.48;;
75506;SDS011;64086;43.220;27.878;2023-04-22T02:16:21;31.20;;;20.75;;
75506;SDS011;64086;43.220;27.878;2023-04-22T02:18:47;28.58;;;21.15;;
75506;SDS011;64086;43.220;27.878;2023-04-22T02:21:12;28.35;;;19.77;;
75506;SDS011;64086;43.220;27.878;2023-04-22T02:23:38;29.05;;;20.20;;
75506;SDS011;64086;43.220;27.878;2023-04-22T02:26:03;28.20;;;20.63;;
75506;SDS011;64086;43.220;27.878;2023-04-22T02:28:29;31.35;;;21.05;;
75506;SDS011;64086;43.220;27.878;2023-04-22T02:30:56;33.75;;;20.92;;
75506;SDS011;64086;43.220;27.878;2023-04-22T02:33:21;29.42;;;20.88;;
75506;SDS011;64086;43.220;27.878;2023-04-22T02:35:47;33.58;;;20.88;;
75506;SDS011;64086;43.220;27.878;2023-04-22T02:38:12;32.20;;;21.48;;
75506;SDS011;64086;43.220;27.878;2023-04-22T02:40:38;27.90;;;23.02;;
75506;SDS011;64086;43.220;27.878;2023-04-22T02:43:03;39.28;;;25.75;;
75506;SDS011;64086;43.220;27.878;2023-04-22T02:45:29;32.92;;;25.63;;
75506;SDS011;64086;43.220;27.878;2023-04-22T02:47:54;42.53;;;29.70;;
75506;SDS011;64086;43.220;27.878;2023-04-22T02:50:20;43.05;;;32.70;;
75506;SDS011;64086;43.220;27.878;2023-04-22T02:52:45;44.72;;;32.70;;
75506;SDS011;64086;43.220;27.878;2023-04-22T02:55:11;43.13;;;31.40;;
75506;SDS011;64086;43.220;27.878;2023-04-22T02:57:36;42.30;;;32.50;;
75506;SDS011;64086;43.220;27.878;2023-04-22T03:00:02;40.85;;;30.20;;
75506;SDS011;64086;43.220;27.878;2023-04-22T03:02:28;43.60;;;31.23;;
75506;SDS011;64086;43.220;27.878;2023-04-22T03:04:54;42.58;;;30.55;;
75506;SDS011;64086;43.220;27.878;2023-04-22T03:07:19;36.55;;;29.73;;
75506;SDS011;64086;43.220;27.878;2023-04-22T03:09:45;44.80;;;30.35;;
75506;SDS011;64086;43.220;27.878;2023-04-22T03:12:10;43.58;;;30.55;;
75506;SDS011;64086;43.220;27.878;2023-04-22T03:14:36;42.95;;;29.27;;
75506;SDS011;64086;43.220;27.878;2023-04-22T03:17:01;49.22;;;29.98;;
75506;SDS011;64086;43.220;27.878;2023-04-22T03:19:26;42.40;;;30.52;;
75506;SDS011;64086;43.220;27.878;2023-04-22T03:21:52;40.92;;;28.48;;
75506;SDS011;64086;43.220;27.878;2023-04-22T03:24:17;38.90;;;28.30;;
75506;SDS011;64086;43.220;27.878;2023-04-22T03:26:43;45.40;;;29.00;;
75506;SDS011;64086;43.220;27.878;2023-04-22T03:29:08;38.00;;;27.85;;
75506;SDS011;64086;43.220;27.878;2023-04-22T03:31:34;38.53;;;27.40;;
75506;SDS011;64086;43.220;27.878;2023-04-22T03:33:59;43.67;;;27.90;;
75506;SDS011;64086;43.220;27.878;2023-04-22T03:36:26;42.70;;;28.92;;
75506;SDS011;64086;43.220;27.878;2023-04-22T03:38:52;36.20;;;27.13;;
75506;SDS011;64086;43.220;27.878;2023-04-22T03:41:17;42.28;;;27.95;;
75506;SDS011;64086;43.220;27.878;2023-04-22T03:43:43;39.88;;;27.48;;
75506;SDS011;64086;43.220;27.878;2023-04-22T03:46:08;38.67;;;27.23;;
75506;SDS011;64086;43.220;27.878;2023-04-22T03:48:34;39.25;;;29.60;;
75506;SDS011;64086;43.220;27.878;2023-04-22T03:51:00;38.20;;;28.33;;
75506;SDS011;64086;43.220;27.878;2023-04-22T03:53:26;38.90;;;27.67;;
75506;SDS011;64086;43.220;27.878;2023-04-22T03:55:52;42.45;;;28.65;;
75506;SDS011;64086;43.220;27.878;2023-04-22T03:58:17;40.90;;;29.02;;
75506;SDS011;64086;43.220;27.878;2023-04-22T04:00:43;42.55;;;28.98;;
75506;SDS011;64086;43.220;27.878;2023-04-22T04:03:08;39.28;;;29.73;;
75506;SDS011;64086;43.220;27.878;2023-04-22T04:05:34;36.28;;;28.90;;
75506;SDS011;64086;43.220;27.878;2023-04-22T04:08:00;36.88;;;28.85;;
75506;SDS011;64086;43.220;27.878;2023-04-22T04:10:26;34.80;;;25.92;;
75506;SDS011;64086;43.220;27.878;2023-04-22T04:12:51;38.67;;;25.63;;
75506;SDS011;64086;43.220;27.878;2023-04-22T04:15:17;31.27;;;25.20;;
75506;SDS011;64086;43.220;27.878;2023-04-22T04:17:46;31.17;;;23.92;;
75506;SDS011;64086;43.220;27.878;2023-04-22T04:20:12;28.92;;;22.95;;
75506;SDS011;64086;43.220;27.878;2023-04-22T04:22:38;27.23;;;21.42;;
75506;SDS011;64086;43.220;27.878;2023-04-22T04:25:04;28.05;;;20.48;;
75506;SDS011;64086;43.220;27.878;2023-04-22T04:27:30;21.83;;;19.48;;
75506;SDS011;64086;43.220;27.878;2023-04-22T04:29:56;23.08;;;19.48;;
75506;SDS011;64086;43.220;27.878;2023-04-22T04:32:22;27.45;;;19.77;;
75506;SDS011;64086;43.220;27.878;2023-04-22T04:34:48;24.27;;;18.73;;
75506;SDS011;64086;43.220;27.878;2023-04-22T04:37:13;18.30;;;16.30;;
75506;SDS011;64086;43.220;27.878;2023-04-22T04:39:39;19.10;;;15.80;;
75506;SDS011;64086;43.220;27.878;2023-04-22T04:42:06;15.55;;;13.93;;
75506;SDS011;64086;43.220;27.878;2023-04-22T04:44:31;17.83;;;15.13;;
75506;SDS011;64086;43.220;27.878;2023-04-22T04:46:57;19.17;;;16.65;;
75506;SDS011;64086;43.220;27.878;2023-04-22T04:49:23;20.48;;;16.90;;
75506;SDS011;64086;43.220;27.878;2023-04-22T04:51:49;23.50;;;15.80;;
75506;SDS011;64086;43.220;27.878;2023-04-22T04:54:14;18.88;;;14.73;;
75506;SDS011;64086;43.220;27.878;2023-04-22T04:56:40;17.20;;;14.48;;
75506;SDS011;64086;43.220;27.878;2023-04-22T04:59:05;18.67;;;15.27;;
75506;SDS011;64086;43.220;27.878;2023-04-22T05:01:31;16.58;;;13.25;;
75506;SDS011;64086;43.220;27.878;2023-04-22T05:03:56;18.63;;;13.18;;
75506;SDS011;64086;43.220;27.878;2023-04-22T05:06:22;15.55;;;12.80;;
75506;SDS011;64086;43.220;27.878;2023-04-22T05:08:47;14.38;;;11.88;;
75506;SDS011;64086;43.220;27.878;2023-04-22T05:11:13;13.75;;;11.30;;
75506;SDS011;64086;43.220;27.878;2023-04-22T05:13:38;15.40;;;12.63;;
75506;SDS011;64086;43.220;27.878;2023-04-22T05:16:04;18.45;;;13.43;;
75506;SDS011;64086;43.220;27.878;2023-04-22T05:18:29;16.73;;;13.27;;
75506;SDS011;64086;43.220;27.878;2023-04-22T05:20:55;16.80;;;13.13;;
75506;SDS011;64086;43.220;27.878;2023-04-22T05:23:23;16.55;;;13.55;;
75506;SDS011;64086;43.220;27.878;2023-04-22T05:25:48;15.25;;;13.60;;
75506;SDS011;64086;43.220;27.878;2023-04-22T05:28:14;15.35;;;13.80;;
75506;SDS011;64086;43.220;27.878;2023-04-22T05:30:39;15.27;;;13.63;;
75506;SDS011;64086;43.220;27.878;2023-04-22T05:33:05;14.68;;;13.10;;
75506;SDS011;64086;43.220;27.878;2023-04-22T05:35:32;18.30;;;13.77;;
75506;SDS011;64086;43.220;27.878;2023-04-22T05:37:58;14.13;;;12.80;;
75506;SDS011;64086;43.220;27.878;2023-04-22T05:40:23;14.27;;;11.73;;
75506;SDS011;64086;43.220;27.878;2023-04-22T05:42:49;14.70;;;10.20;;
75506;SDS011;64086;43.220;27.878;2023-04-22T05:45:14;12.07;;;9.45;;
75506;SDS011;64086;43.220;27.878;2023-04-22T05:47:40;9.35;;;7.80;;
75506;SDS011;64086;43.220;27.878;2023-04-22T05:50:05;9.20;;;7.13;;
75506;SDS011;64086;43.220;27.878;2023-04-22T05:52:31;9.23;;;5.45;;
75506;SDS011;64086;43.220;27.878;2023-04-22T05:54:56;9.95;;;6.00;;
75506;SDS011;64086;43.220;27.878;2023-04-22T05:57:22;7.47;;;5.35;;
75506;SDS011;64086;43.220;27.878;2023-04-22T05:59:47;10.25;;;4.85;;
75506;SDS011;64086;43.220;27.878;2023-04-22T06:02:13;8.30;;;5.25;;
75506;SDS011;64086;43.220;27.878;2023-04-22T06:04:40;8.23;;;5.63;;
75506;SDS011;64086;43.220;27.878;2023-04-22T06:07:05;9.35;;;5.15;;
75506;SDS011;64086;43.220;27.878;2023-04-22T06:09:30;7.40;;;5.15;;
75506;SDS011;64086;43.220;27.878;2023-04-22T06:11:56;7.00;;;5.10;;
75506;SDS011;64086;43.220;27.878;2023-04-22T06:14:22;9.93;;;5.53;;
75506;SDS011;64086;43.220;27.878;2023-04-22T06:16:47;8.07;;;5.65;;
75506;SDS011;64086;43.220;27.878;2023-04-22T06:19:14;8.52;;;5.50;;
75506;SDS011;64086;43.220;27.878;2023-04-22T06:21:40;9.20;;;5.25;;
75506;SDS011;64086;43.220;27.878;2023-04-22T06:24:06;8.75;;;5.18;;
75506;SDS011;64086;43.220;27.878;2023-04-22T06:26:34;8.50;;;5.47;;
75506;SDS011;64086;43.220;27.878;2023-04-22T06:29:00;7.55;;;4.95;;
75506;SDS011;64086;43.220;27.878;2023-04-22T06:31:29;9.45;;;5.07;;
75506;SDS011;64086;43.220;27.878;2023-04-22T06:33:55;8.68;;;4.93;;
75506;SDS011;64086;43.220;27.878;2023-04-22T06:36:20;7.90;;;5.00;;
75506;SDS011;64086;43.220;27.878;2023-04-22T06:38:46;5.95;;;4.50;;
75506;SDS011;64086;43.220;27.878;2023-04-22T06:41:12;9.48;;;4.85;;
75506;SDS011;64086;43.220;27.878;2023-04-22T06:43:37;6.30;;;4.68;;
75506;SDS011;64086;43.220;27.878;2023-04-22T06:46:03;8.15;;;5.18;;
75506;SDS011;64086;43.220;27.878;2023-04-22T06:48:28;6.53;;;4.40;;
75506;SDS011;64086;43.220;27.878;2023-04-22T06:50:54;8.30;;;5.20;;
75506;SDS011;64086;43.220;27.878;2023-04-22T06:53:19;9.32;;;5.07;;
75506;SDS011;64086;43.220;27.878;2023-04-22T06:55:45;9.05;;;4.28;;
75506;SDS011;64086;43.220;27.878;2023-04-22T06:58:10;7.40;;;4.28;;
75506;SDS011;64086;43.220;27.878;2023-04-22T07:00:36;7.43;;;4.35;;
75506;SDS011;64086;43.220;27.878;2023-04-22T07:03:01;5.40;;;4.30;;
75506;SDS011;64086;43.220;27.878;2023-04-22T07:05:27;8.43;;;4.70;;
75506;SDS011;64086;43.220;27.878;2023-04-22T07:07:52;9.52;;;3.92;;
75506;SDS011;64086;43.220;27.878;2023-04-22T07:10:18;8.18;;;4.10;;
75506;SDS011;64086;43.220;27.878;2023-04-22T07:12:43;7.00;;;4.07;;
75506;SDS011;64086;43.220;27.878;2023-04-22T07:15:09;6.97;;;4.03;;
75506;SDS011;64086;43.220;27.878;2023-04-22T07:17:35;7.00;;;4.57;;
75506;SDS011;64086;43.220;27.878;2023-04-22T07:20:00;8.38;;;4.15;;
75506;SDS011;64086;43.220;27.878;2023-04-22T07:22:26;6.93;;;3.80;;
75506;SDS011;64086;43.220;27.878;2023-04-22T07:24:51;8.90;;;3.95;;
75506;SDS011;64086;43.220;27.878;2023-04-22T07:27:17;7.78;;;3.75;;
75506;SDS011;64086;43.220;27.878;2023-04-22T07:29:42;7.88;;;3.50;;
75506;SDS011;64086;43.220;27.878;2023-04-22T07:32:07;7.70;;;3.65;;
75506;SDS011;64086;43.220;27.878;2023-04-22T07:34:33;7.25;;;3.38;;
75506;SDS011;64086;43.220;27.878;2023-04-22T07:36:59;6.32;;;3.40;;
75506;SDS011;64086;43.220;27.878;2023-04-22T07:39:25;6.30;;;3.60;;
75506;SDS011;64086;43.220;27.878;2023-04-22T07:41:50;6.97;;;3.65;;
75506;SDS011;64086;43.220;27.878;2023-04-22T07:44:17;5.97;;;4.00;;
75506;SDS011;64086;43.220;27.878;2023-04-22T07:46:48;6.20;;;3.70;;
75506;SDS011;64086;43.220;27.878;2023-04-22T07:49:14;7.85;;;3.70;;
75506;SDS011;64086;43.220;27.878;2023-04-22T07:51:41;6.90;;;4.20;;
75506;SDS011;64086;43.220;27.878;2023-04-22T07:54:07;7.43;;;3.50;;
75506;SDS011;64086;43.220;27.878;2023-04-22T07:56:32;8.18;;;3.45;;
75506;SDS011;64086;43.220;27.878;2023-04-22T07:58:58;8.52;;;3.35;;
75506;SDS011;64086;43.220;27.878;2023-04-22T08:01:24;5.57;;;3.75;;
75506;SDS011;64086;43.220;27.878;2023-04-22T08:03:49;5.30;;;3.40;;
75506;SDS011;64086;43.220;27.878;2023-04-22T08:06:15;4.68;;;3.40;;
75506;SDS011;64086;43.220;27.878;2023-04-22T08:08:40;6.57;;;3.40;;
75506;SDS011;64086;43.220;27.878;2023-04-22T08:11:06;9.43;;;3.33;;
75506;SDS011;64086;43.220;27.878;2023-04-22T08:13:31;8.38;;;3.67;;
75506;SDS011;64086;43.220;27.878;2023-04-22T08:15:57;6.47;;;3.30;;
75506;SDS011;64086;43.220;27.878;2023-04-22T08:18:23;5.40;;;3.42;;
75506;SDS011;64086;43.220;27.878;2023-04-22T08:20:49;10.23;;;3.75;;
75506;SDS011;64086;43.220;27.878;2023-04-22T08:23:15;7.82;;;3.20;;
75506;SDS011;64086;43.220;27.878;2023-04-22T08:25:40;6.78;;;3.25;;
75506;SDS011;64086;43.220;27.878;2023-04-22T08:28:06;6.75;;;3.30;;
75506;SDS011;64086;43.220;27.878;2023-04-22T08:30:31;6.15;;;3.30;;
75506;SDS011;64086;43.220;27.878;2023-04-22T08:32:57;9.68;;;4.13;;
75506;SDS011;64086;43.220;27.878;2023-04-22T08:35:22;6.93;;;3.75;;
75506;SDS011;64086;43.220;27.878;2023-04-22T08:37:48;7.47;;;3.38;;
75506;SDS011;64086;43.220;27.878;2023-04-22T08:40:13;6.88;;;3.38;;
75506;SDS011;64086;43.220;27.878;2023-04-22T08:42:39;8.27;;;3.00;;
75506;SDS011;64086;43.220;27.878;2023-04-22T08:45:04;6.40;;;3.35;;
75506;SDS011;64086;43.220;27.878;2023-04-22T08:47:30;7.68;;;3.42;;
75506;SDS011;64086;43.220;27.878;2023-04-22T08:50:00;5.05;;;2.85;;
75506;SDS011;64086;43.220;27.878;2023-04-22T08:52:28;6.28;;;3.45;;
75506;SDS011;64086;43.220;27.878;2023-04-22T08:54:54;5.07;;;2.92;;
75506;SDS011;64086;43.220;27.878;2023-04-22T08:57:20;5.15;;;2.83;;
75506;SDS011;64086;43.220;27.878;2023-04-22T08:59:45;8.50;;;3.08;;
75506;SDS011;64086;43.220;27.878;2023-04-22T09:02:12;6.90;;;2.70;;
75506;SDS011;64086;43.220;27.878;2023-04-22T09:04:41;5.47;;;2.50;;
75506;SDS011;64086;43.220;27.878;2023-04-22T09:07:07;6.32;;;2.88;;
75506;SDS011;64086;43.220;27.878;2023-04-22T09:09:33;5.97;;;2.70;;
75506;SDS011;64086;43.220;27.878;2023-04-22T09:11:58;7.80;;;3.05;;
75506;SDS011;64086;43.220;27.878;2023-04-22T09:14:24;6.20;;;2.67;;
75506;SDS011;64086;43.220;27.878;2023-04-22T09:16:50;7.40;;;2.65;;
75506;SDS011;64086;43.220;27.878;2023-04-22T09:19:16;5.28;;;2.50;;
75506;SDS011;64086;43.220;27.878;2023-04-22T09:21:41;7.68;;;2.17;;
75506;SDS011;64086;43.220;27.878;2023-04-22T09:24:07;6.25;;;2.90;;
75506;SDS011;64086;43.220;27.878;2023-04-22T09:26:33;6.57;;;2.50;;
75506;SDS011;64086;43.220;27.878;2023-04-22T09:28:58;5.45;;;2.53;;
75506;SDS011;64086;43.220;27.878;2023-04-22T09:31:26;4.10;;;2.25;;
75506;SDS011;64086;43.220;27.878;2023-04-22T09:33:53;5.28;;;2.10;;
75506;SDS011;64086;43.220;27.878;2023-04-22T09:36:27;4.18;;;2.28;;
75506;SDS011;64086;43.220;27.878;2023-04-22T09:38:54;6.03;;;2.63;;
75506;SDS011;64086;43.220;27.878;2023-04-22T09:41:29;4.15;;;2.38;;
75506;SDS011;64086;43.220;27.878;2023-04-22T09:44:07;4.82;;;2.17;;
75506;SDS011;64086;43.220;27.878;2023-04-22T09:46:35;6.60;;;2.88;;
75506;SDS011;64086;43.220;27.878;2023-04-22T09:49:01;4.70;;;2.47;;
75506;SDS011;64086;43.220;27.878;2023-04-22T09:51:27;3.95;;;2.38;;
75506;SDS011;64086;43.220;27.878;2023-04-22T09:56:46;7.25;;;2.35;;
75506;SDS011;64086;43.220;27.878;2023-04-22T10:01:46;6.05;;;2.25;;
75506;SDS011;64086;43.220;27.878;2023-04-22T10:04:12;4.22;;;2.50;;
75506;SDS011;64086;43.220;27.878;2023-04-22T10:06:39;5.50;;;2.40;;
75506;SDS011;64086;43.220;27.878;2023-04-22T10:09:05;4.28;;;1.98;;
75506;SDS011;64086;43.220;27.878;2023-04-22T10:11:32;6.13;;;2.25;;
75506;SDS011;64086;43.220;27.878;2023-04-22T10:13:58;7.25;;;2.30;;
75506;SDS011;64086;43.220;27.878;2023-04-22T10:16:27;4.75;;;2.50;;
75506;SDS011;64086;43.220;27.878;2023-04-22T10:18:56;5.80;;;2.28;;
75506;SDS011;64086;43.220;27.878;2023-04-22T10:21:23;4.80;;;2.30;;
75506;SDS011;64086;43.220;27.878;2023-04-22T10:23:49;5.20;;;2.50;;
75506;SDS011;64086;43.220;27.878;2023-04-22T10:29:04;6.18;;;2.10;;
75506;SDS011;64086;43.220;27.878;2023-04-22T10:31:31;5.22;;;2.20;;
75506;SDS011;64086;43.220;27.878;2023-04-22T10:34:17;5.15;;;2.10;;
75506;SDS011;64086;43.220;27.878;2023-04-22T10:36:55;4.03;;;1.90;;
75506;SDS011;64086;43.220;27.878;2023-04-22T10:39:29;4.82;;;2.03;;
75506;SDS011;64086;43.220;27.878;2023-04-22T10:41:56;3.70;;;2.15;;
75506;SDS011;64086;43.220;27.878;2023-04-22T10:44:22;6.28;;;2.17;;
75506;SDS011;64086;43.220;27.878;2023-04-22T10:49:21;4.95;;;1.88;;
75506;SDS011;64086;43.220;27.878;2023-04-22T10:51:51;5.90;;;2.30;;
75506;SDS011;64086;43.220;27.878;2023-04-22T10:57:05;4.57;;;2.10;;
75506;SDS011;64086;43.220;27.878;2023-04-22T10:59:33;5.47;;;2.10;;
75506;SDS011;64086;43.220;27.878;2023-04-22T11:02:01;5.75;;;2.00;;
75506;SDS011;64086;43.220;27.878;2023-04-22T11:04:26;4.45;;;2.22;;
75506;SDS011;64086;43.220;27.878;2023-04-22T11:15:00;3.92;;;1.98;;
75506;SDS011;64086;43.220;27.878;2023-04-22T11:17:29;5.20;;;2.58;;
75506;SDS011;64086;43.220;27.878;2023-04-22T11:19:56;6.00;;;2.30;;
75506;SDS011;64086;43.220;27.878;2023-04-22T11:22:22;5.88;;;2.22;;
75506;SDS011;64086;43.220;27.878;2023-04-22T11:24:55;4.10;;;1.98;;
75506;SDS011;64086;43.220;27.878;2023-04-22T11:27:21;6.20;;;2.43;;
75506;SDS011;64086;43.220;27.878;2023-04-22T11:37:40;6.90;;;2.35;;
75506;SDS011;64086;43.220;27.878;2023-04-22T11:40:07;5.25;;;2.33;;
75506;SDS011;64086;43.220;27.878;2023-04-22T11:42:35;5.32;;;2.50;;
75506;SDS011;64086;43.220;27.878;2023-04-22T11:45:00;3.55;;;2.38;;
75506;SDS011;64086;43.220;27.878;2023-04-22T11:47:29;4.05;;;2.40;;
75506;SDS011;64086;43.220;27.878;2023-04-22T11:49:59;6.70;;;2.50;;
75506;SDS011;64086;43.220;27.878;2023-04-22T11:55:14;5.53;;;2.50;;
75506;SDS011;64086;43.220;27.878;2023-04-22T11:57:40;5.90;;;2.47;;
75506;SDS011;64086;43.220;27.878;2023-04-22T12:00:09;5.93;;;2.65;;
75506;SDS011;64086;43.220;27.878;2023-04-22T12:02:36;5.68;;;2.25;;
75506;SDS011;64086;43.220;27.878;2023-04-22T12:05:02;7.57;;;2.78;;
75506;SDS011;64086;43.220;27.878;2023-04-22T12:07:28;4.65;;;2.50;;
75506;SDS011;64086;43.220;27.878;2023-04-22T12:09:53;5.47;;;2.65;;
75506;SDS011;64086;43.220;27.878;2023-04-22T12:12:23;6.90;;;2.80;;
75506;SDS011;64086;43.220;27.878;2023-04-22T12:14:49;6.10;;;3.10;;
75506;SDS011;64086;43.220;27.878;2023-04-22T12:17:15;5.43;;;2.60;;
75506;SDS011;64086;43.220;27.878;2023-04-22T12:19:46;4.85;;;2.30;;
75506;SDS011;64086;43.220;27.878;2023-04-22T12:22:22;7.22;;;2.50;;
75506;SDS011;64086;43.220;27.878;2023-04-22T12:24:48;4.85;;;2.50;;
75506;SDS011;64086;43.220;27.878;2023-04-22T12:27:14;5.65;;;2.60;;
75506;SDS011;64086;43.220;27.878;2023-04-22T12:29:41;4.57;;;2.47;;
75506;SDS011;64086;43.220;27.878;2023-04-22T12:32:15;8.27;;;3.10;;
75506;SDS011;64086;43.220;27.878;2023-04-22T12:34:41;6.85;;;3.88;;
75506;SDS011;64086;43.220;27.878;2023-04-22T12:37:06;9.93;;;4.25;;
75506;SDS011;64086;43.220;27.878;2023-04-22T12:39:32;11.93;;;4.53;;
75506;SDS011;64086;43.220;27.878;2023-04-22T12:41:57;8.02;;;5.20;;
75506;SDS011;64086;43.220;27.878;2023-04-22T12:44:23;9.93;;;5.43;;
75506;SDS011;64086;43.220;27.878;2023-04-22T12:46:48;10.32;;;5.95;;
75506;SDS011;64086;43.220;27.878;2023-04-22T12:49:15;7.18;;;5.60;;
75506;SDS011;64086;43.220;27.878;2023-04-22T12:51:40;7.38;;;5.60;;
75506;SDS011;64086;43.220;27.878;2023-04-22T12:54:06;7.93;;;5.63;;
75506;SDS011;64086;43.220;27.878;2023-04-22T12:56:31;8.63;;;6.38;;
75506;SDS011;64086;43.220;27.878;2023-04-22T12:58:56;9.82;;;6.45;;
75506;SDS011;64086;43.220;27.878;2023-04-22T13:01:27;8.88;;;6.53;;
75506;SDS011;64086;43.220;27.878;2023-04-22T13:03:52;10.25;;;7.03;;
75506;SDS011;64086;43.220;27.878;2023-04-22T13:06:18;10.93;;;6.95;;
75506;SDS011;64086;43.220;27.878;2023-04-22T13:08:44;9.13;;;6.50;;
75506;SDS011;64086;43.220;27.878;2023-04-22T13:11:09;8.60;;;7.00;;
75506;SDS011;64086;43.220;27.878;2023-04-22T13:13:35;11.35;;;7.10;;
75506;SDS011;64086;43.220;27.878;2023-04-22T13:16:00;10.43;;;8.00;;
75506;SDS011;64086;43.220;27.878;2023-04-22T13:18:26;8.55;;;7.35;;
75506;SDS011;64086;43.220;27.878;2023-04-22T13:20:52;9.70;;;6.93;;
75506;SDS011;64086;43.220;27.878;2023-04-22T13:23:22;8.05;;;6.57;;
75506;SDS011;64086;43.220;27.878;2023-04-22T13:25:49;10.55;;;6.70;;
75506;SDS011;64086;43.220;27.878;2023-04-22T13:28:15;9.10;;;7.28;;
75506;SDS011;64086;43.220;27.878;2023-04-22T13:30:40;9.57;;;7.28;;
75506;SDS011;64086;43.220;27.878;2023-04-22T13:33:06;9.18;;;6.90;;
75506;SDS011;64086;43.220;27.878;2023-04-22T13:35:31;10.48;;;6.97;;
75506;SDS011;64086;43.220;27.878;2023-04-22T13:37:57;9.70;;;6.60;;
75506;SDS011;64086;43.220;27.878;2023-04-22T13:40:22;9.05;;;5.95;;
75506;SDS011;64086;43.220;27.878;2023-04-22T13:42:50;8.32;;;6.60;;
75506;SDS011;64086;43.220;27.878;2023-04-22T13:45:16;9.23;;;6.53;;
75506;SDS011;64086;43.220;27.878;2023-04-22T13:47:41;8.13;;;6.03;;
75506;SDS011;64086;43.220;27.878;2023-04-22T13:50:07;10.10;;;6.43;;
75506;SDS011;64086;43.220;27.878;2023-04-22T13:52:33;11.80;;;6.85;;
75506;SDS011;64086;43.220;27.878;2023-04-22T13:54:59;7.53;;;5.97;;
75506;SDS011;64086;43.220;27.878;2023-04-22T13:57:24;8.02;;;5.35;;
75506;SDS011;64086;43.220;27.878;2023-04-22T13:59:50;7.28;;;5.20;;
75506;SDS011;64086;43.220;27.878;2023-04-22T14:02:15;8.68;;;6.03;;
75506;SDS011;64086;43.220;27.878;2023-04-22T14:04:41;7.30;;;5.43;;
75506;SDS011;64086;43.220;27.878;2023-04-22T14:07:06;8.40;;;5.57;;
75506;SDS011;64086;43.220;27.878;2023-04-22T14:09:32;7.20;;;5.55;;
75506;SDS011;64086;43.220;27.878;2023-04-22T14:11:58;8.85;;;5.80;;
75506;SDS011;64086;43.220;27.878;2023-04-22T14:14:24;8.50;;;6.10;;
75506;SDS011;64086;43.220;27.878;2023-04-22T14:16:50;6.45;;;5.63;;
75506;SDS011;64086;43.220;27.878;2023-04-22T14:19:16;8.57;;;6.35;;
75506;SDS011;64086;43.220;27.878;2023-04-22T14:21:41;7.22;;;5.22;;
75506;SDS011;64086;43.220;27.878;2023-04-22T14:24:06;10.52;;;5.20;;
75506;SDS011;64086;43.220;27.878;2023-04-22T14:26:32;9.85;;;4.60;;
75506;SDS011;64086;43.220;27.878;2023-04-22T14:28:57;6.80;;;4.40;;
75506;SDS011;64086;43.220;27.878;2023-04-22T14:31:23;6.63;;;5.07;;
75506;SDS011;64086;43.220;27.878;2023-04-22T14:33:49;6.57;;;4.43;;
75506;SDS011;64086;43.220;27.878;2023-04-22T14:36:15;8.50;;;4.90;;
75506;SDS011;64086;43.220;27.878;2023-04-22T14:38:41;9.02;;;4.60;;
75506;SDS011;64086;43.220;27.878;2023-04-22T14:41:07;7.50;;;5.07;;
75506;SDS011;64086;43.220;27.878;2023-04-22T14:43:33;6.93;;;4.32;;
75506;SDS011;64086;43.220;27.878;2023-04-22T14:45:58;6.80;;;4.53;;
75506;SDS011;64086;43.220;27.878;2023-04-22T14:48:24;6.75;;;4.55;;